sensor_id;sensor_type;location;lat;lon;timestamp;temperature;humidity
6930;DHT22;3504;52.616;13.238;2022-12-29T00:00:06;7.85;84.94
6930;DHT22;3504;52.616;13.238;2022-12-29T00:05:13;7.88;84.84
6930;DHT22;3504;52.616;13.238;2022-12-29T00:10:13;7.88;84.39
6930;DHT22;3504;52.616;13.238;2022-12-29T00:15:14;7.95;84.13
6930;DHT22;3504;52.616;13.238;2022-12-29T00:20:35;7.97;84.02
6930;DHT22;3504;52.616;13.238;2022-12-29T00:25:55;7.99;83.56
6930;DHT22;3504;52.616;13.238;2022-12-29T00:31:14;8.04;83.43
6930;DHT22;3504;52.616;13.238;2022-12-29T00:36:39;8.09;83.66
6930;DHT22;3504;52.616;13.238;2022-12-29T00:41:40;8.12;83.75
6930;DHT22;3504;52.616;13.238;2022-12-29T00:47:00;8.09;84.11
6930;DHT22;3504;52.616;13.238;2022-12-29T00:52:09;8.11;84.37
6930;DHT22;3504;52.616;13.238;2022-12-29T00:57:10;8.07;84.49
6930;DHT22;3504;52.616;13.238;2022-12-29T01:02:12;8.04;84.72
6930;DHT22;3504;52.616;13.238;2022-12-29T01:07:13;8.01;84.62
6930;DHT22;3504;52.616;13.238;2022-12-29T01:12:13;8.08;84.57
6930;DHT22;3504;52.616;13.238;2022-12-29T01:17:15;8.05;84.61
6930;DHT22;3504;52.616;13.238;2022-12-29T01:22:15;8.08;84.76
6930;DHT22;3504;52.616;13.238;2022-12-29T01:27:16;8.07;84.93
6930;DHT22;3504;52.616;13.238;2022-12-29T01:32:16;8.08;85.12
6930;DHT22;3504;52.616;13.238;2022-12-29T01:37:17;8.09;85.13
6930;DHT22;3504;52.616;13.238;2022-12-29T01:42:21;8.09;85.43
6930;DHT22;3504;52.616;13.238;2022-12-29T01:52:32;8.09;85.51
6930;DHT22;3504;52.616;13.238;2022-12-29T01:57:38;8.11;85.67
6930;DHT22;3504;52.616;13.238;2022-12-29T02:02:46;8.11;86.07
6930;DHT22;3504;52.616;13.238;2022-12-29T02:07:48;8.11;86.07
6930;DHT22;3504;52.616;13.238;2022-12-29T02:12:52;8.05;85.85
6930;DHT22;3504;52.616;13.238;2022-12-29T02:29:40;8.09;84.91
6930;DHT22;3504;52.616;13.238;2022-12-29T02:40:36;8.18;84.22
6930;DHT22;3504;52.616;13.238;2022-12-29T02:45:51;8.22;84.13
6930;DHT22;3504;52.616;13.238;2022-12-29T02:51:12;8.25;83.79
6930;DHT22;3504;52.616;13.238;2022-12-29T02:56:17;8.28;83.49
6930;DHT22;3504;52.616;13.238;2022-12-29T03:18:10;8.52;81.72
6930;DHT22;3504;52.616;13.238;2022-12-29T03:23:14;8.54;81.55
6930;DHT22;3504;52.616;13.238;2022-12-29T03:28:25;8.67;80.67
6930;DHT22;3504;52.616;13.238;2022-12-29T03:33:30;8.74;80.39
6930;DHT22;3504;52.616;13.238;2022-12-29T03:38:44;8.83;80.25
6930;DHT22;3504;52.616;13.238;2022-12-29T03:43:46;8.89;80.20
6930;DHT22;3504;52.616;13.238;2022-12-29T03:48:47;8.91;79.92
6930;DHT22;3504;52.616;13.238;2022-12-29T03:53:48;8.96;79.69
6930;DHT22;3504;52.616;13.238;2022-12-29T03:58:48;9.04;79.59
6930;DHT22;3504;52.616;13.238;2022-12-29T04:03:54;9.08;79.36
6930;DHT22;3504;52.616;13.238;2022-12-29T04:08:55;9.15;79.36
6930;DHT22;3504;52.616;13.238;2022-12-29T04:13:56;9.17;79.04
6930;DHT22;3504;52.616;13.238;2022-12-29T04:18:59;9.22;79.05
6930;DHT22;3504;52.616;13.238;2022-12-29T04:23:59;9.27;78.93
6930;DHT22;3504;52.616;13.238;2022-12-29T04:29:00;9.30;78.78
6930;DHT22;3504;52.616;13.238;2022-12-29T04:34:24;9.31;78.94
6930;DHT22;3504;52.616;13.238;2022-12-29T04:39:24;9.30;78.63
6930;DHT22;3504;52.616;13.238;2022-12-29T04:44:26;9.32;78.38
6930;DHT22;3504;52.616;13.238;2022-12-29T04:49:53;9.30;78.43
6930;DHT22;3504;52.616;13.238;2022-12-29T04:55:12;9.36;78.38
6930;DHT22;3504;52.616;13.238;2022-12-29T05:00:15;9.43;78.25
6930;DHT22;3504;52.616;13.238;2022-12-29T05:05:15;9.45;78.40
6930;DHT22;3504;52.616;13.238;2022-12-29T05:10:21;9.46;78.19
6930;DHT22;3504;52.616;13.238;2022-12-29T05:15:25;9.55;78.10
6930;DHT22;3504;52.616;13.238;2022-12-29T05:20:26;9.59;78.12
6930;DHT22;3504;52.616;13.238;2022-12-29T05:25:26;9.66;78.13
6930;DHT22;3504;52.616;13.238;2022-12-29T05:30:50;9.74;77.83
6930;DHT22;3504;52.616;13.238;2022-12-29T05:35:52;9.81;77.84
6930;DHT22;3504;52.616;13.238;2022-12-29T05:40:54;9.82;77.85
6930;DHT22;3504;52.616;13.238;2022-12-29T05:46:13;9.89;77.63
6930;DHT22;3504;52.616;13.238;2022-12-29T05:51:32;9.89;77.56
6930;DHT22;3504;52.616;13.238;2022-12-29T05:56:32;9.96;77.85
6930;DHT22;3504;52.616;13.238;2022-12-29T06:01:33;9.97;78.92
6930;DHT22;3504;52.616;13.238;2022-12-29T06:06:34;9.93;78.65
6930;DHT22;3504;52.616;13.238;2022-12-29T06:11:35;9.94;78.48
6930;DHT22;3504;52.616;13.238;2022-12-29T06:16:37;9.99;78.31
6930;DHT22;3504;52.616;13.238;2022-12-29T06:21:42;10.00;78.16
6930;DHT22;3504;52.616;13.238;2022-12-29T06:26:44;10.03;78.16
6930;DHT22;3504;52.616;13.238;2022-12-29T06:31:44;10.07;78.00
6930;DHT22;3504;52.616;13.238;2022-12-29T06:36:49;10.10;78.05
6930;DHT22;3504;52.616;13.238;2022-12-29T06:41:52;10.16;77.93
6930;DHT22;3504;52.616;13.238;2022-12-29T06:47:09;10.17;77.69
6930;DHT22;3504;52.616;13.238;2022-12-29T06:52:10;10.20;77.34
6930;DHT22;3504;52.616;13.238;2022-12-29T06:57:11;10.20;77.16
6930;DHT22;3504;52.616;13.238;2022-12-29T07:02:11;10.23;77.38
6930;DHT22;3504;52.616;13.238;2022-12-29T07:07:12;10.21;77.35
6930;DHT22;3504;52.616;13.238;2022-12-29T07:12:13;10.17;77.59
6930;DHT22;3504;52.616;13.238;2022-12-29T07:17:13;10.20;77.61
6930;DHT22;3504;52.616;13.238;2022-12-29T07:22:14;10.24;77.53
6930;DHT22;3504;52.616;13.238;2022-12-29T07:27:14;10.23;77.63
6930;DHT22;3504;52.616;13.238;2022-12-29T07:32:15;10.20;77.61
6930;DHT22;3504;52.616;13.238;2022-12-29T07:37:16;10.23;77.94
6930;DHT22;3504;52.616;13.238;2022-12-29T07:42:16;10.23;78.07
6930;DHT22;3504;52.616;13.238;2022-12-29T07:47:22;10.24;78.07
6930;DHT22;3504;52.616;13.238;2022-12-29T07:52:23;10.25;78.03
6930;DHT22;3504;52.616;13.238;2022-12-29T07:57:23;10.31;78.01
6930;DHT22;3504;52.616;13.238;2022-12-29T08:02:24;10.33;77.92
6930;DHT22;3504;52.616;13.238;2022-12-29T08:07:26;10.30;77.99
6930;DHT22;3504;52.616;13.238;2022-12-29T08:12:26;10.33;78.08
6930;DHT22;3504;52.616;13.238;2022-12-29T08:17:27;10.37;77.98
6930;DHT22;3504;52.616;13.238;2022-12-29T08:22:27;10.37;77.78
6930;DHT22;3504;52.616;13.238;2022-12-29T08:27:28;10.37;77.71
6930;DHT22;3504;52.616;13.238;2022-12-29T08:32:29;10.37;77.60
6930;DHT22;3504;52.616;13.238;2022-12-29T08:37:29;10.37;77.62
6930;DHT22;3504;52.616;13.238;2022-12-29T08:42:31;10.38;77.59
6930;DHT22;3504;52.616;13.238;2022-12-29T08:47:31;10.42;77.73
6930;DHT22;3504;52.616;13.238;2022-12-29T08:52:32;10.54;77.82
6930;DHT22;3504;52.616;13.238;2022-12-29T08:57:32;10.68;77.30
6930;DHT22;3504;52.616;13.238;2022-12-29T09:02:46;10.81;76.88
6930;DHT22;3504;52.616;13.238;2022-12-29T09:07:47;10.91;76.31
6930;DHT22;3504;52.616;13.238;2022-12-29T09:12:47;11.05;76.16
6930;DHT22;3504;52.616;13.238;2022-12-29T09:17:48;11.19;75.84
6930;DHT22;3504;52.616;13.238;2022-12-29T09:22:48;11.29;75.01
6930;DHT22;3504;52.616;13.238;2022-12-29T09:27:50;11.47;74.90
6930;DHT22;3504;52.616;13.238;2022-12-29T09:32:53;11.66;74.30
6930;DHT22;3504;52.616;13.238;2022-12-29T09:37:53;11.82;73.97
6930;DHT22;3504;52.616;13.238;2022-12-29T09:48:34;11.97;73.34
6930;DHT22;3504;52.616;13.238;2022-12-29T09:53:44;12.15;72.71
6930;DHT22;3504;52.616;13.238;2022-12-29T09:59:10;12.22;72.86
6930;DHT22;3504;52.616;13.238;2022-12-29T10:04:13;12.08;73.28
6930;DHT22;3504;52.616;13.238;2022-12-29T10:09:39;12.02;73.33
6930;DHT22;3504;52.616;13.238;2022-12-29T10:20:25;12.19;73.30
6930;DHT22;3504;52.616;13.238;2022-12-29T10:25:33;12.46;72.66
6930;DHT22;3504;52.616;13.238;2022-12-29T10:30:35;12.52;72.11
6930;DHT22;3504;52.616;13.238;2022-12-29T10:35:38;12.55;72.39
6930;DHT22;3504;52.616;13.238;2022-12-29T10:41:00;12.48;72.58
6930;DHT22;3504;52.616;13.238;2022-12-29T10:46:13;12.59;73.37
6930;DHT22;3504;52.616;13.238;2022-12-29T10:51:38;12.77;72.17
6930;DHT22;3504;52.616;13.238;2022-12-29T10:56:47;12.87;71.61
6930;DHT22;3504;52.616;13.238;2022-12-29T11:07:10;12.85;71.17
6930;DHT22;3504;52.616;13.238;2022-12-29T11:12:27;12.71;71.51
6930;DHT22;3504;52.616;13.238;2022-12-29T11:17:28;12.69;71.55
6930;DHT22;3504;52.616;13.238;2022-12-29T11:22:28;12.64;71.80
6930;DHT22;3504;52.616;13.238;2022-12-29T11:27:29;12.63;71.66
6930;DHT22;3504;52.616;13.238;2022-12-29T11:32:30;12.62;71.84
6930;DHT22;3504;52.616;13.238;2022-12-29T11:37:37;12.52;74.06
6930;DHT22;3504;52.616;13.238;2022-12-29T11:42:52;12.29;75.54
6930;DHT22;3504;52.616;13.238;2022-12-29T11:48:11;12.06;76.86
6930;DHT22;3504;52.616;13.238;2022-12-29T11:53:21;11.92;78.31
6930;DHT22;3504;52.616;13.238;2022-12-29T11:58:35;11.73;78.04
6930;DHT22;3504;52.616;13.238;2022-12-29T12:03:42;11.64;78.30
6930;DHT22;3504;52.616;13.238;2022-12-29T12:08:54;11.58;77.89
6930;DHT22;3504;52.616;13.238;2022-12-29T12:20:00;11.37;79.80
6930;DHT22;3504;52.616;13.238;2022-12-29T12:30:24;11.16;82.24
6930;DHT22;3504;52.616;13.238;2022-12-29T12:35:42;11.13;81.74
6930;DHT22;3504;52.616;13.238;2022-12-29T12:40:59;11.06;82.06
6930;DHT22;3504;52.616;13.238;2022-12-29T13:02:56;11.10;79.75
6930;DHT22;3504;52.616;13.238;2022-12-29T13:08:34;11.06;78.45
6930;DHT22;3504;52.616;13.238;2022-12-29T13:19:54;10.95;77.55
6930;DHT22;3504;52.616;13.238;2022-12-29T13:25:21;10.88;77.38
6930;DHT22;3504;52.616;13.238;2022-12-29T13:30:40;10.92;77.88
6930;DHT22;3504;52.616;13.238;2022-12-29T13:36:10;10.97;78.07
6930;DHT22;3504;52.616;13.238;2022-12-29T13:41:20;10.99;78.22
6930;DHT22;3504;52.616;13.238;2022-12-29T13:46:36;10.97;78.34
6930;DHT22;3504;52.616;13.238;2022-12-29T13:51:56;10.97;78.38
6930;DHT22;3504;52.616;13.238;2022-12-29T14:02:26;10.92;78.30
6930;DHT22;3504;52.616;13.238;2022-12-29T14:07:38;10.85;78.49
6930;DHT22;3504;52.616;13.238;2022-12-29T14:12:43;10.85;78.56
6930;DHT22;3504;52.616;13.238;2022-12-29T14:17:44;10.79;78.89
6930;DHT22;3504;52.616;13.238;2022-12-29T14:22:58;10.79;79.25
6930;DHT22;3504;52.616;13.238;2022-12-29T14:28:16;10.76;79.54
6930;DHT22;3504;52.616;13.238;2022-12-29T14:33:24;10.71;80.06
6930;DHT22;3504;52.616;13.238;2022-12-29T14:38:29;10.71;80.74
6930;DHT22;3504;52.616;13.238;2022-12-29T14:43:30;10.69;80.87
6930;DHT22;3504;52.616;13.238;2022-12-29T14:48:38;10.69;81.16
6930;DHT22;3504;52.616;13.238;2022-12-29T14:53:45;10.69;81.22
6930;DHT22;3504;52.616;13.238;2022-12-29T14:59:01;10.71;82.29
6930;DHT22;3504;52.616;13.238;2022-12-29T15:04:23;10.34;80.86
6930;DHT22;3504;52.616;13.238;2022-12-29T15:09:54;9.99;82.70
6930;DHT22;3504;52.616;13.238;2022-12-29T15:14:58;9.67;82.61
6930;DHT22;3504;52.616;13.238;2022-12-29T15:20:14;9.58;82.64
6930;DHT22;3504;52.616;13.238;2022-12-29T15:25:16;9.56;83.24
6930;DHT22;3504;52.616;13.238;2022-12-29T15:30:18;9.53;83.98
6930;DHT22;3504;52.616;13.238;2022-12-29T15:35:33;9.51;84.30
6930;DHT22;3504;52.616;13.238;2022-12-29T15:40:34;9.45;84.56
6930;DHT22;3504;52.616;13.238;2022-12-29T15:45:35;9.43;84.70
6930;DHT22;3504;52.616;13.238;2022-12-29T15:50:36;9.35;85.37
6930;DHT22;3504;52.616;13.238;2022-12-29T15:55:40;9.39;85.65
6930;DHT22;3504;52.616;13.238;2022-12-29T16:00:48;9.41;86.48
6930;DHT22;3504;52.616;13.238;2022-12-29T16:05:53;9.39;87.10
6930;DHT22;3504;52.616;13.238;2022-12-29T16:10:54;9.45;87.00
6930;DHT22;3504;52.616;13.238;2022-12-29T16:16:13;9.45;87.09
6930;DHT22;3504;52.616;13.238;2022-12-29T16:21:29;9.49;86.92
6930;DHT22;3504;52.616;13.238;2022-12-29T16:26:32;9.49;86.60
6930;DHT22;3504;52.616;13.238;2022-12-29T16:42:01;9.39;86.19
6930;DHT22;3504;52.616;13.238;2022-12-29T16:47:21;9.34;86.00
6930;DHT22;3504;52.616;13.238;2022-12-29T16:52:29;9.31;85.78
6930;DHT22;3504;52.616;13.238;2022-12-29T16:57:35;9.30;85.74
6930;DHT22;3504;52.616;13.238;2022-12-29T17:02:36;9.24;85.62
6930;DHT22;3504;52.616;13.238;2022-12-29T17:07:45;9.28;85.33
6930;DHT22;3504;52.616;13.238;2022-12-29T17:12:48;9.30;84.81
6930;DHT22;3504;52.616;13.238;2022-12-29T17:17:49;9.30;84.31
6930;DHT22;3504;52.616;13.238;2022-12-29T17:22:52;9.32;84.31
6930;DHT22;3504;52.616;13.238;2022-12-29T17:28:00;9.35;84.06
6930;DHT22;3504;52.616;13.238;2022-12-29T17:33:07;9.36;82.89
6930;DHT22;3504;52.616;13.238;2022-12-29T17:38:28;9.38;82.42
6930;DHT22;3504;52.616;13.238;2022-12-29T17:43:29;9.43;82.95
6930;DHT22;3504;52.616;13.238;2022-12-29T17:48:30;9.43;81.72
6930;DHT22;3504;52.616;13.238;2022-12-29T17:53:30;9.43;81.86
6930;DHT22;3504;52.616;13.238;2022-12-29T17:58:34;9.43;80.71
6930;DHT22;3504;52.616;13.238;2022-12-29T18:03:37;9.51;80.95
6930;DHT22;3504;52.616;13.238;2022-12-29T18:08:39;9.46;80.50
6930;DHT22;3504;52.616;13.238;2022-12-29T18:13:40;9.56;80.09
6930;DHT22;3504;52.616;13.238;2022-12-29T18:18:42;9.56;80.06
6930;DHT22;3504;52.616;13.238;2022-12-29T18:23:43;9.55;79.99
6930;DHT22;3504;52.616;13.238;2022-12-29T18:28:44;9.51;79.51
6930;DHT22;3504;52.616;13.238;2022-12-29T18:33:50;9.46;79.57
6930;DHT22;3504;52.616;13.238;2022-12-29T18:38:50;9.43;79.25
6930;DHT22;3504;52.616;13.238;2022-12-29T18:43:54;9.36;79.10
6930;DHT22;3504;52.616;13.238;2022-12-29T18:48:54;9.34;78.92
6930;DHT22;3504;52.616;13.238;2022-12-29T18:53:55;9.28;78.61
6930;DHT22;3504;52.616;13.238;2022-12-29T18:58:55;9.31;79.02
6930;DHT22;3504;52.616;13.238;2022-12-29T19:03:56;9.34;78.82
6930;DHT22;3504;52.616;13.238;2022-12-29T19:08:56;9.41;78.81
6930;DHT22;3504;52.616;13.238;2022-12-29T19:13:57;9.45;78.57
6930;DHT22;3504;52.616;13.238;2022-12-29T19:18:57;9.46;78.73
6930;DHT22;3504;52.616;13.238;2022-12-29T19:24:00;9.43;78.48
6930;DHT22;3504;52.616;13.238;2022-12-29T19:29:02;9.43;78.57
6930;DHT22;3504;52.616;13.238;2022-12-29T19:34:02;9.45;78.75
6930;DHT22;3504;52.616;13.238;2022-12-29T19:39:03;9.43;78.65
6930;DHT22;3504;52.616;13.238;2022-12-29T19:44:03;9.43;78.63
6930;DHT22;3504;52.616;13.238;2022-12-29T19:49:04;9.43;78.72
6930;DHT22;3504;52.616;13.238;2022-12-29T19:54:04;9.43;78.53
6930;DHT22;3504;52.616;13.238;2022-12-29T19:59:05;9.45;78.30
6930;DHT22;3504;52.616;13.238;2022-12-29T20:04:05;9.45;78.58
6930;DHT22;3504;52.616;13.238;2022-12-29T20:09:06;9.48;78.34
6930;DHT22;3504;52.616;13.238;2022-12-29T20:14:06;9.46;78.25
6930;DHT22;3504;52.616;13.238;2022-12-29T20:19:07;9.49;78.36
6930;DHT22;3504;52.616;13.238;2022-12-29T20:24:07;9.46;78.35
6930;DHT22;3504;52.616;13.238;2022-12-29T20:29:08;9.41;78.25
6930;DHT22;3504;52.616;13.238;2022-12-29T20:34:09;9.39;78.55
6930;DHT22;3504;52.616;13.238;2022-12-29T20:39:15;9.39;78.26
6930;DHT22;3504;52.616;13.238;2022-12-29T20:44:16;9.38;78.56
6930;DHT22;3504;52.616;13.238;2022-12-29T20:49:16;9.38;78.56
6930;DHT22;3504;52.616;13.238;2022-12-29T20:54:18;9.39;78.73
6930;DHT22;3504;52.616;13.238;2022-12-29T20:59:18;9.39;78.76
6930;DHT22;3504;52.616;13.238;2022-12-29T21:04:19;9.35;78.74
6930;DHT22;3504;52.616;13.238;2022-12-29T21:09:19;9.38;78.88
6930;DHT22;3504;52.616;13.238;2022-12-29T21:14:20;9.38;78.91
6930;DHT22;3504;52.616;13.238;2022-12-29T21:19:20;9.42;78.42
6930;DHT22;3504;52.616;13.238;2022-12-29T21:24:21;9.45;78.21
6930;DHT22;3504;52.616;13.238;2022-12-29T21:29:21;9.48;78.17
6930;DHT22;3504;52.616;13.238;2022-12-29T21:34:21;9.46;78.19
6930;DHT22;3504;52.616;13.238;2022-12-29T21:39:22;9.49;78.09
6930;DHT22;3504;52.616;13.238;2022-12-29T21:44:23;9.39;78.20
6930;DHT22;3504;52.616;13.238;2022-12-29T21:49:55;9.35;78.12
6930;DHT22;3504;52.616;13.238;2022-12-29T21:54:56;9.28;78.16
6930;DHT22;3504;52.616;13.238;2022-12-29T21:59:59;9.24;78.27
6930;DHT22;3504;52.616;13.238;2022-12-29T22:05:18;9.18;78.20
6930;DHT22;3504;52.616;13.238;2022-12-29T22:10:40;9.17;78.00
6930;DHT22;3504;52.616;13.238;2022-12-29T22:16:02;9.18;77.94
6930;DHT22;3504;52.616;13.238;2022-12-29T22:21:06;9.20;77.25
6930;DHT22;3504;52.616;13.238;2022-12-29T22:26:10;9.21;77.02
6930;DHT22;3504;52.616;13.238;2022-12-29T22:31:25;9.24;76.46
6930;DHT22;3504;52.616;13.238;2022-12-29T22:36:30;9.25;75.99
6930;DHT22;3504;52.616;13.238;2022-12-29T22:41:31;9.25;75.51
6930;DHT22;3504;52.616;13.238;2022-12-29T22:46:31;9.22;75.14
6930;DHT22;3504;52.616;13.238;2022-12-29T22:51:32;9.18;75.00
6930;DHT22;3504;52.616;13.238;2022-12-29T22:56:32;9.15;74.98
6930;DHT22;3504;52.616;13.238;2022-12-29T23:01:41;9.17;74.28
6930;DHT22;3504;52.616;13.238;2022-12-29T23:06:41;9.20;74.30
6930;DHT22;3504;52.616;13.238;2022-12-29T23:11:42;9.22;73.56
6930;DHT22;3504;52.616;13.238;2022-12-29T23:16:43;9.22;73.62
6930;DHT22;3504;52.616;13.238;2022-12-29T23:21:44;9.18;73.58
6930;DHT22;3504;52.616;13.238;2022-12-29T23:26:47;9.17;73.24
6930;DHT22;3504;52.616;13.238;2022-12-29T23:31:47;9.15;73.05
6930;DHT22;3504;52.616;13.238;2022-12-29T23:36:48;9.12;73.60
6930;DHT22;3504;52.616;13.238;2022-12-29T23:41:50;9.12;73.30
6930;DHT22;3504;52.616;13.238;2022-12-29T23:46:51;9.04;73.64
6930;DHT22;3504;52.616;13.238;2022-12-29T23:51:51;9.00;73.69
6930;DHT22;3504;52.616;13.238;2022-12-29T23:56:52;8.94;73.99
